PWSweather.com
Personal Weather Stations
Station Observations
UISISLE1
Newport, Isle ofWight, ISLE OF WIGHT PO30 2JX

NewportIsle ofWight, ISLE OF WIGHT PO30 2JX

Lat: 50.72, Lon: -1.27

Elevation: 45

Station Type: Davis Vantage Pro Plus

http://www.isleofwightweather.co.uk

High Low Average
Temperature 67.2°F19.6°C 54.4°F12.4°C 59.6°F15.3°C
Dew Point 61.6°F16.4°C 52.1°F11.2°C 57.1°F13.9°C
Winds 8.1 mph 13.0 kmh Calm Calm 3.0 mph SW4.8 kmh SW
Wind Gusts 13.0 mph20.9 kmh -- 5.0 mph8.0 kmh
Humidity 97% 80% 92%
Pressure 30.11 in1019.6 mb 30.01 in1016.3 mb -
Precipitation 0.00 in0.0 mm - -
Hour Temp Dew Point Humidity Winds Wind Gusts Pressure Precip Precip Rate Daily Precip Total
12:00 AM 55.7°F13.2°C 53.4°F11.9°C 92% Calm Calm -- 30.02 in1016.6 mb - 0.00 in0.0 mm 0.00 in0.0 mm
12:15 AM 55.4°F13.0°C 53.1°F11.7°C 92% Calm Calm -- 30.02 in1016.6 mb - 0.00 in0.0 mm 0.00 in0.0 mm
12:30 AM 55.1°F12.8°C 52.8°F11.6°C 92% Calm Calm -- 30.02 in1016.6 mb - 0.00 in0.0 mm 0.00 in0.0 mm
12:45 AM 54.8°F12.7°C 52.5°F11.4°C 92% 0.1 mph SW0.2 kmh SW 2.0 mph3.2 kmh 30.01 in1016.3 mb - 0.00 in0.0 mm 0.00 in0.0 mm
01:00 AM 54.5°F12.5°C 52.2°F11.2°C 92% Calm Calm -- 30.02 in1016.6 mb - 0.00 in0.0 mm 0.00 in0.0 mm
01:15 AM 54.4°F12.4°C 52.1°F11.2°C 92% Calm Calm -- 30.01 in1016.3 mb - 0.00 in0.0 mm 0.00 in0.0 mm
01:30 AM 54.4°F12.4°C 52.4°F11.3°C 93% Calm Calm -- 30.02 in1016.6 mb - 0.00 in0.0 mm 0.00 in0.0 mm
01:45 AM 54.6°F12.6°C 52.6°F11.4°C 93% 0.1 mph SW0.2 kmh SW 1.0 mph1.6 kmh 30.02 in1016.6 mb - 0.00 in0.0 mm 0.00 in0.0 mm
02:00 AM 54.7°F12.6°C 52.7°F11.5°C 93% Calm Calm -- 30.02 in1016.6 mb - 0.00 in0.0 mm 0.00 in0.0 mm
02:15 AM 54.7°F12.6°C 53.0°F11.7°C 94% Calm Calm -- 30.02 in1016.6 mb - 0.00 in0.0 mm 0.00 in0.0 mm
02:30 AM 54.9°F12.7°C 53.2°F11.8°C 94% Calm Calm -- 30.02 in1016.6 mb - 0.00 in0.0 mm 0.00 in0.0 mm
02:45 AM 55.2°F12.9°C 53.5°F11.9°C 94% Calm Calm -- 30.02 in1016.6 mb - 0.00 in0.0 mm 0.00 in0.0 mm
03:00 AM 55.2°F12.9°C 53.8°F12.1°C 95% Calm Calm -- 30.02 in1016.6 mb - 0.00 in0.0 mm 0.00 in0.0 mm
03:15 AM 55.3°F12.9°C 53.9°F12.2°C 95% Calm Calm -- 30.02 in1016.6 mb - 0.00 in0.0 mm 0.00 in0.0 mm
03:30 AM 55.6°F13.1°C 54.2°F12.3°C 95% 0.7 mph N1.1 kmh N 2.1 mph3.4 kmh 30.03 in1016.9 mb - 0.00 in0.0 mm 0.00 in0.0 mm
03:45 AM 55.7°F13.2°C 54.3°F12.4°C 95% Calm Calm -- 30.03 in1016.9 mb - 0.00 in0.0 mm 0.00 in0.0 mm
04:00 AM 55.8°F13.2°C 54.4°F12.4°C 95% Calm Calm -- 30.04 in1017.3 mb - 0.00 in0.0 mm 0.00 in0.0 mm
04:15 AM 55.8°F13.2°C 54.4°F12.4°C 95% Calm Calm -- 30.04 in1017.3 mb - 0.00 in0.0 mm 0.00 in0.0 mm
04:30 AM 55.9°F13.3°C 54.5°F12.5°C 95% 0.6 mph E1.0 kmh E 2.0 mph3.2 kmh 30.04 in1017.3 mb - 0.00 in0.0 mm 0.00 in0.0 mm
04:45 AM 56.0°F13.3°C 54.6°F12.6°C 95% 0.1 mph E0.2 kmh E 2.0 mph3.2 kmh 30.04 in1017.3 mb - 0.00 in0.0 mm 0.00 in0.0 mm
05:00 AM 56.0°F13.3°C 54.9°F12.7°C 96% Calm Calm -- 30.04 in1017.3 mb - 0.00 in0.0 mm 0.00 in0.0 mm
05:15 AM 56.0°F13.3°C 54.9°F12.7°C 96% 0.7 mph ESE1.1 kmh ESE 1.0 mph1.6 kmh 30.05 in1017.6 mb - 0.00 in0.0 mm 0.00 in0.0 mm
05:30 AM 56.2°F13.4°C 55.1°F12.8°C 96% Calm Calm -- 30.04 in1017.3 mb - 0.00 in0.0 mm 0.00 in0.0 mm
05:45 AM 56.5°F13.6°C 55.3°F12.9°C 96% Calm Calm -- 30.04 in1017.3 mb - 0.00 in0.0 mm 0.00 in0.0 mm
06:00 AM 56.8°F13.8°C 55.7°F13.2°C 96% Calm Calm 1.0 mph1.6 kmh 30.05 in1017.6 mb - 0.00 in0.0 mm 0.00 in0.0 mm
06:15 AM 57.2°F14.0°C 56.1°F13.4°C 96% Calm Calm -- 30.05 in1017.6 mb - 0.00 in0.0 mm 0.00 in0.0 mm
06:30 AM 57.5°F14.2°C 56.4°F13.6°C 96% 0.2 mph ESE0.3 kmh ESE 2.0 mph3.2 kmh 30.05 in1017.6 mb - 0.00 in0.0 mm 0.00 in0.0 mm
06:45 AM 57.8°F14.3°C 56.7°F13.7°C 96% 0.9 mph SW1.4 kmh SW 4.0 mph6.4 kmh 30.05 in1017.6 mb - 0.00 in0.0 mm 0.00 in0.0 mm
07:00 AM 58.1°F14.5°C 57.0°F13.9°C 96% 1.4 mph ESE2.3 kmh ESE 4.0 mph6.4 kmh 30.05 in1017.6 mb - 0.00 in0.0 mm 0.00 in0.0 mm
07:15 AM 58.2°F14.6°C 57.1°F13.9°C 96% 1.2 mph SSW1.9 kmh SSW 1.0 mph1.6 kmh 30.06 in1017.9 mb - 0.00 in0.0 mm 0.00 in0.0 mm
07:30 AM 58.2°F14.6°C 57.1°F13.9°C 96% 0.6 mph SW1.0 kmh SW 1.0 mph1.6 kmh 30.06 in1017.9 mb - 0.00 in0.0 mm 0.00 in0.0 mm
07:45 AM 58.3°F14.6°C 57.2°F14.0°C 96% 0.5 mph SW0.8 kmh SW 1.0 mph1.6 kmh 30.06 in1017.9 mb - 0.00 in0.0 mm 0.00 in0.0 mm
08:00 AM 58.6°F14.8°C 57.5°F14.2°C 96% 2.1 mph SW3.4 kmh SW 3.0 mph4.8 kmh 30.07 in1018.3 mb - 0.00 in0.0 mm 0.00 in0.0 mm
08:15 AM 59.1°F15.1°C 58.2°F14.6°C 97% 0.3 mph SW0.5 kmh SW 2.0 mph3.2 kmh 30.07 in1018.3 mb - 0.00 in0.0 mm 0.00 in0.0 mm
08:30 AM 59.5°F15.3°C 58.6°F14.8°C 97% 0.4 mph SSW0.6 kmh SSW 2.0 mph3.2 kmh 30.07 in1018.3 mb - 0.00 in0.0 mm 0.00 in0.0 mm
08:45 AM 60.1°F15.6°C 59.2°F15.1°C 97% 2.3 mph SW3.7 kmh SW 3.0 mph4.8 kmh 30.07 in1018.3 mb - 0.00 in0.0 mm 0.00 in0.0 mm
09:00 AM 60.4°F15.8°C 59.5°F15.3°C 97% 0.1 mph SE0.2 kmh SE 1.0 mph1.6 kmh 30.08 in1018.6 mb - 0.00 in0.0 mm 0.00 in0.0 mm
09:15 AM 60.6°F15.9°C 59.5°F15.3°C 96% 0.9 mph S1.4 kmh S 2.0 mph3.2 kmh 30.08 in1018.6 mb - 0.00 in0.0 mm 0.00 in0.0 mm
09:30 AM 60.9°F16.1°C 59.8°F15.4°C 96% Calm Calm 1.0 mph1.6 kmh 30.08 in1018.6 mb - 0.00 in0.0 mm 0.00 in0.0 mm
09:45 AM 61.5°F16.4°C 60.3°F15.7°C 96% 1.0 mph SSE1.6 kmh SSE 3.0 mph4.8 kmh 30.08 in1018.6 mb - 0.00 in0.0 mm 0.00 in0.0 mm
10:00 AM 61.9°F16.6°C 60.7°F15.9°C 96% 3.7 mph SW6.0 kmh SW 6.0 mph9.7 kmh 30.08 in1018.6 mb - 0.00 in0.0 mm 0.00 in0.0 mm
10:15 AM 62.2°F16.8°C 60.8°F16.0°C 95% 3.4 mph WSW5.5 kmh WSW 5.0 mph8.0 kmh 30.08 in1018.6 mb - 0.00 in0.0 mm 0.00 in0.0 mm
10:30 AM 62.7°F17.1°C 60.9°F16.1°C 94% 5.2 mph SW8.4 kmh SW 8.0 mph12.9 kmh 30.08 in1018.6 mb - 0.00 in0.0 mm 0.00 in0.0 mm
10:45 AM 62.4°F16.9°C 60.1°F15.6°C 92% 3.2 mph SE5.1 kmh SE 4.0 mph6.4 kmh 30.09 in1019.0 mb - 0.00 in0.0 mm 0.00 in0.0 mm
11:00 AM 62.3°F16.8°C 59.6°F15.3°C 91% 4.2 mph SW6.8 kmh SW 7.0 mph11.3 kmh 30.09 in1019.0 mb - 0.00 in0.0 mm 0.00 in0.0 mm
11:15 AM 62.6°F17.0°C 59.6°F15.3°C 90% 5.4 mph SW8.7 kmh SW 7.0 mph11.3 kmh 30.09 in1019.0 mb - 0.00 in0.0 mm 0.00 in0.0 mm
11:30 AM 62.8°F17.1°C 59.5°F15.3°C 89% 2.4 mph SE3.9 kmh SE 5.0 mph8.0 kmh 30.09 in1019.0 mb - 0.00 in0.0 mm 0.00 in0.0 mm
11:45 AM 63.3°F17.4°C 60.0°F15.6°C 89% 1.5 mph SW2.4 kmh SW 6.0 mph9.7 kmh 30.09 in1019.0 mb - 0.00 in0.0 mm 0.00 in0.0 mm
12:00 PM 63.8°F17.7°C 60.2°F15.7°C 88% 5.0 mph SSW8.0 kmh SSW 6.0 mph9.7 kmh 30.09 in1019.0 mb - 0.00 in0.0 mm 0.00 in0.0 mm
12:15 PM 64.7°F18.2°C 60.7°F15.9°C 87% 4.1 mph WSW6.6 kmh WSW 6.0 mph9.7 kmh 30.09 in1019.0 mb - 0.00 in0.0 mm 0.00 in0.0 mm
12:30 PM 65.9°F18.8°C 61.6°F16.4°C 86% 5.8 mph SW9.3 kmh SW 7.0 mph11.3 kmh 30.09 in1019.0 mb - 0.00 in0.0 mm 0.00 in0.0 mm
12:45 PM 66.4°F19.1°C 61.4°F16.3°C 84% 5.3 mph S8.5 kmh S 8.0 mph12.9 kmh 30.08 in1018.6 mb - 0.00 in0.0 mm 0.00 in0.0 mm
01:00 PM 67.1°F19.5°C 61.4°F16.3°C 82% 5.1 mph SW8.2 kmh SW 10.0 mph16.1 kmh 30.09 in1019.0 mb - 0.00 in0.0 mm 0.00 in0.0 mm
01:15 PM 67.2°F19.6°C 61.2°F16.2°C 81% 4.2 mph SW6.8 kmh SW 6.0 mph9.7 kmh 30.09 in1019.0 mb - 0.00 in0.0 mm 0.00 in0.0 mm
01:30 PM 66.7°F19.3°C 60.3°F15.7°C 80% 5.5 mph SSW8.9 kmh SSW 10.0 mph16.1 kmh 30.09 in1019.0 mb - 0.00 in0.0 mm 0.00 in0.0 mm
01:45 PM 65.5°F18.6°C 59.5°F15.3°C 81% 6.4 mph SW10.3 kmh SW 9.0 mph14.5 kmh 30.09 in1019.0 mb - 0.00 in0.0 mm 0.00 in0.0 mm
02:00 PM 64.4°F18.0°C 58.8°F14.9°C 82% 3.9 mph SW6.3 kmh SW 7.0 mph11.3 kmh 30.09 in1019.0 mb - 0.00 in0.0 mm 0.00 in0.0 mm
02:15 PM 63.7°F17.6°C 58.4°F14.7°C 83% 3.7 mph SW6.0 kmh SW 6.0 mph9.7 kmh 30.09 in1019.0 mb - 0.00 in0.0 mm 0.00 in0.0 mm
02:30 PM 63.5°F17.5°C 59.2°F15.1°C 86% 6.0 mph SW9.7 kmh SW 10.0 mph16.1 kmh 30.09 in1019.0 mb - 0.00 in0.0 mm 0.00 in0.0 mm
02:45 PM 64.1°F17.8°C 59.8°F15.4°C 86% 4.3 mph SW6.9 kmh SW 7.0 mph11.3 kmh 30.09 in1019.0 mb - 0.00 in0.0 mm 0.00 in0.0 mm
03:00 PM 64.9°F18.3°C 60.6°F15.9°C 86% 4.2 mph SW6.8 kmh SW 9.0 mph14.5 kmh 30.09 in1019.0 mb - 0.00 in0.0 mm 0.00 in0.0 mm
03:15 PM 66.4°F19.1°C 61.4°F16.3°C 84% 2.7 mph SW4.3 kmh SW 7.2 mph11.6 kmh 30.09 in1019.0 mb - 0.00 in0.0 mm 0.00 in0.0 mm
03:30 PM 66.5°F19.2°C 60.5°F15.8°C 81% 4.5 mph SSW7.2 kmh SSW 8.0 mph12.9 kmh 30.09 in1019.0 mb - 0.00 in0.0 mm 0.00 in0.0 mm
03:45 PM 66.0°F18.9°C 60.4°F15.8°C 82% 2.0 mph SW3.2 kmh SW 7.0 mph11.3 kmh 30.09 in1019.0 mb - 0.00 in0.0 mm 0.00 in0.0 mm
04:00 PM 65.7°F18.7°C 60.1°F15.6°C 82% 0.8 mph W1.3 kmh W 2.0 mph3.2 kmh 30.09 in1019.0 mb - 0.00 in0.0 mm 0.00 in0.0 mm
04:15 PM 65.5°F18.6°C 60.2°F15.7°C 83% 2.7 mph WSW4.3 kmh WSW 7.0 mph11.3 kmh 30.09 in1019.0 mb - 0.00 in0.0 mm 0.00 in0.0 mm
04:30 PM 64.4°F18.0°C 59.2°F15.1°C 83% 3.9 mph WSW6.3 kmh WSW 8.0 mph12.9 kmh 30.09 in1019.0 mb - 0.00 in0.0 mm 0.00 in0.0 mm
04:45 PM 63.5°F17.5°C 58.9°F14.9°C 85% 5.0 mph WSW8.0 kmh WSW 10.0 mph16.1 kmh 30.09 in1019.0 mb - 0.00 in0.0 mm 0.00 in0.0 mm
05:00 PM 63.0°F17.2°C 58.7°F14.8°C 86% 5.8 mph WSW9.3 kmh WSW 9.0 mph14.5 kmh 30.09 in1019.0 mb - 0.00 in0.0 mm 0.00 in0.0 mm
05:15 PM 62.6°F17.0°C 58.7°F14.8°C 87% 5.0 mph WSW8.0 kmh WSW 8.0 mph12.9 kmh 30.09 in1019.0 mb - 0.00 in0.0 mm 0.00 in0.0 mm
05:30 PM 61.8°F16.6°C 57.9°F14.4°C 87% 5.0 mph WSW8.0 kmh WSW 7.0 mph11.3 kmh 30.08 in1018.6 mb - 0.00 in0.0 mm 0.00 in0.0 mm
05:45 PM 61.3°F16.3°C 57.7°F14.3°C 88% 5.3 mph WSW8.5 kmh WSW 9.0 mph14.5 kmh 30.09 in1019.0 mb - 0.00 in0.0 mm 0.00 in0.0 mm
06:00 PM 60.7°F15.9°C 57.5°F14.2°C 89% 6.9 mph WSW11.1 kmh WSW 12.0 mph19.3 kmh 30.09 in1019.0 mb - 0.00 in0.0 mm 0.00 in0.0 mm
06:15 PM 60.6°F15.9°C 57.7°F14.3°C 90% 5.0 mph SW8.0 kmh SW 13.0 mph20.9 kmh 30.09 in1019.0 mb - 0.00 in0.0 mm 0.00 in0.0 mm
06:30 PM 60.5°F15.8°C 57.6°F14.2°C 90% 4.8 mph WSW7.7 kmh WSW 8.0 mph12.9 kmh 30.09 in1019.0 mb - 0.00 in0.0 mm 0.00 in0.0 mm
06:45 PM 60.0°F15.6°C 57.4°F14.1°C 91% 8.1 mph S13.0 kmh S 12.0 mph19.3 kmh 30.09 in1019.0 mb - 0.00 in0.0 mm 0.00 in0.0 mm
07:00 PM 59.4°F15.2°C 56.8°F13.8°C 91% 7.4 mph SW11.9 kmh SW 12.0 mph19.3 kmh 30.09 in1019.0 mb - 0.00 in0.0 mm 0.00 in0.0 mm
07:15 PM 59.0°F15.0°C 56.7°F13.7°C 92% 6.8 mph SSW10.9 kmh SSW 11.0 mph17.7 kmh 30.09 in1019.0 mb - 0.00 in0.0 mm 0.00 in0.0 mm
07:30 PM 58.6°F14.8°C 56.3°F13.5°C 92% 5.6 mph SW9.0 kmh SW 9.0 mph14.5 kmh 30.10 in1019.3 mb - 0.00 in0.0 mm 0.00 in0.0 mm
07:45 PM 58.1°F14.5°C 55.8°F13.2°C 92% 6.1 mph SW9.8 kmh SW 11.0 mph17.7 kmh 30.10 in1019.3 mb - 0.00 in0.0 mm 0.00 in0.0 mm
08:00 PM 57.8°F14.3°C 55.8°F13.2°C 93% 4.8 mph WSW7.7 kmh WSW 9.0 mph14.5 kmh 30.10 in1019.3 mb - 0.00 in0.0 mm 0.00 in0.0 mm
08:15 PM 57.7°F14.3°C 55.7°F13.2°C 93% 5.0 mph SW8.0 kmh SW 8.0 mph12.9 kmh 30.11 in1019.6 mb - 0.00 in0.0 mm 0.00 in0.0 mm
08:30 PM 57.5°F14.2°C 55.8°F13.2°C 94% 5.6 mph SW9.0 kmh SW 7.0 mph11.3 kmh 30.11 in1019.6 mb - 0.00 in0.0 mm 0.00 in0.0 mm
08:45 PM 57.3°F14.1°C 55.6°F13.1°C 94% 2.1 mph SW3.4 kmh SW 4.0 mph6.4 kmh 30.11 in1019.6 mb - 0.00 in0.0 mm 0.00 in0.0 mm
09:00 PM 57.3°F14.1°C 55.6°F13.1°C 94% 0.9 mph SW1.4 kmh SW 6.0 mph9.7 kmh 30.11 in1019.6 mb - 0.00 in0.0 mm 0.00 in0.0 mm
09:15 PM 57.3°F14.1°C 55.6°F13.1°C 94% 4.5 mph W7.2 kmh W 9.0 mph14.5 kmh 30.11 in1019.6 mb - 0.00 in0.0 mm 0.00 in0.0 mm
09:30 PM 57.1°F13.9°C 55.7°F13.2°C 95% 0.9 mph SW1.4 kmh SW 5.0 mph8.0 kmh 30.11 in1019.6 mb - 0.00 in0.0 mm 0.00 in0.0 mm
09:45 PM 57.1°F13.9°C 55.7°F13.2°C 95% 2.3 mph SW3.7 kmh SW 5.0 mph8.0 kmh 30.11 in1019.6 mb - 0.00 in0.0 mm 0.00 in0.0 mm
10:00 PM 57.0°F13.9°C 55.6°F13.1°C 95% 3.4 mph WSW5.5 kmh WSW 7.0 mph11.3 kmh 30.11 in1019.6 mb - 0.00 in0.0 mm 0.00 in0.0 mm
10:15 PM 57.0°F13.9°C 55.6°F13.1°C 95% 5.8 mph SW9.3 kmh SW 8.0 mph12.9 kmh 30.11 in1019.6 mb - 0.00 in0.0 mm 0.00 in0.0 mm
10:30 PM 57.1°F13.9°C 55.7°F13.2°C 95% 3.3 mph W5.3 kmh W 7.0 mph11.3 kmh 30.11 in1019.6 mb - 0.00 in0.0 mm 0.00 in0.0 mm
10:45 PM 57.1°F13.9°C 55.7°F13.2°C 95% 1.9 mph WSW3.1 kmh WSW 4.0 mph6.4 kmh 30.11 in1019.6 mb - 0.00 in0.0 mm 0.00 in0.0 mm
11:00 PM 57.2°F14.0°C 55.8°F13.2°C 95% 2.5 mph WSW4.0 kmh WSW 6.0 mph9.7 kmh 30.11 in1019.6 mb - 0.00 in0.0 mm 0.00 in0.0 mm
11:15 PM 57.2°F14.0°C 55.8°F13.2°C 95% 2.9 mph W4.7 kmh W 3.1 mph5.0 kmh 30.10 in1019.3 mb - 0.00 in0.0 mm 0.00 in0.0 mm
11:30 PM 57.1°F13.9°C 56.0°F13.3°C 96% 2.1 mph WSW3.4 kmh WSW 5.0 mph8.0 kmh 30.10 in1019.3 mb - 0.00 in0.0 mm 0.00 in0.0 mm
11:45 PM 57.1°F13.9°C 56.0°F13.3°C 96% 3.6 mph WSW5.8 kmh WSW 8.0 mph12.9 kmh 30.10 in1019.3 mb - 0.00 in0.0 mm 0.00 in0.0 mm